Time;durP1;ratioP1;P1;durP2;ratioP2;P2;SDS_P1;SDS_P2;PMS_P1;PMS_P2;Temp;Humidity;BMP_temperature;BMP_pressure;BME280_temperature;BME280_humidity;BME280_pressure;Samples;Min_cycle;Max_cycle;Signal;HPM_P1;HPM_P2
2022/10/31 00:02:06;;;;;;;35.40;18.48;;;12.70;99.90;;;;;;5100120;28;20487;-94
2022/10/31 00:04:32;;;;;;;38.42;18.52;;;12.70;99.90;;;;;;5100256;28;20054;-94
2022/10/31 00:06:58;;;;;;;33.45;17.17;;;12.70;99.90;;;;;;5116706;28;20039;-93
2022/10/31 00:09:26;;;;;;;35.97;17.52;;;12.70;99.90;;;;;;5082960;28;20047;-94
2022/10/31 00:11:52;;;;;;;34.80;18.33;;;12.70;99.90;;;;;;5099143;28;20126;-93
2022/10/31 00:14:18;;;;;;;34.13;18.38;;;12.60;99.90;;;;;;5116452;28;20131;-93
2022/10/31 00:16:43;;;;;;;31.65;17.98;;;12.50;99.90;;;;;;5115945;28;20491;-88
2022/10/31 00:19:09;;;;;;;34.47;17.88;;;12.50;99.90;;;;;;5081858;28;20047;-92
2022/10/31 00:21:35;;;;;;;33.30;17.52;;;12.50;99.90;;;;;;5116015;28;20066;-92
2022/10/31 00:24:00;;;;;;;32.60;17.75;;;12.50;99.90;;;;;;5099280;28;20043;-92
2022/10/31 00:26:30;;;;;;;30.88;16.02;;;12.40;99.90;;;;;;5081989;28;20567;-93
2022/10/31 00:28:56;;;;;;;36.72;18.05;;;12.50;99.90;;;;;;5115660;28;20053;-90
2022/10/31 00:31:21;;;;;;;31.42;16.63;;;12.50;99.90;;;;;;5115973;28;20483;-89
2022/10/31 00:33:47;;;;;;;29.50;16.60;;;12.40;99.90;;;;;;5116194;28;20135;-91
2022/10/31 00:36:15;;;;;;;32.13;15.85;;;12.40;99.90;;;;;;5099000;28;20048;-92
2022/10/31 00:38:41;;;;;;;33.88;15.93;;;12.40;99.90;;;;;;5100550;28;20051;-93
2022/10/31 00:41:07;;;;;;;31.73;15.77;;;12.40;99.90;;;;;;5099731;28;20055;-92
2022/10/31 00:43:32;;;;;;;33.42;16.02;;;12.30;99.90;;;;;;5100473;28;20051;-95
2022/10/31 00:45:58;;;;;;;26.88;15.48;;;12.30;99.90;;;;;;5100212;28;20043;-95
2022/10/31 00:48:24;;;;;;;27.65;15.18;;;12.30;99.90;;;;;;5120892;28;20107;-91
2022/10/31 00:50:49;;;;;;;24.58;14.13;;;12.30;99.90;;;;;;5121767;28;20028;-89
2022/10/31 00:53:15;;;;;;;31.13;14.02;;;12.30;99.90;;;;;;5110908;28;20039;-95
2022/10/31 00:55:41;;;;;;;25.10;14.23;;;12.30;99.90;;;;;;5103458;28;20110;-92
2022/10/31 00:58:06;;;;;;;27.40;14.65;;;12.30;99.90;;;;;;5101764;28;20059;-93
2022/10/31 01:00:32;;;;;;;27.90;14.18;;;12.30;99.90;;;;;;5098879;28;20051;-93
2022/10/31 01:02:57;;;;;;;27.88;14.32;;;12.30;99.90;;;;;;5098176;28;20051;-88
2022/10/31 01:05:26;;;;;;;30.63;15.18;;;12.30;99.90;;;;;;5101250;28;20051;-94
2022/10/31 01:07:52;;;;;;;31.60;15.23;;;12.30;99.90;;;;;;5117313;28;20146;-91
2022/10/31 01:10:18;;;;;;;27.90;15.35;;;12.30;99.90;;;;;;5081592;28;20265;-92
2022/10/31 01:12:47;;;;;;;28.33;15.30;;;12.20;99.90;;;;;;5098896;28;20055;-90
2022/10/31 01:15:20;;;;;;;31.42;15.50;;;12.20;99.90;;;;;;5081499;28;20138;-92
2022/10/31 01:17:46;;;;;;;31.38;15.38;;;12.20;99.90;;;;;;5098463;28;20150;-91
2022/10/31 01:20:12;;;;;;;31.45;15.90;;;12.10;99.90;;;;;;5097646;28;20047;-92
2022/10/31 01:22:38;;;;;;;31.17;16.35;;;12.10;99.90;;;;;;5098585;28;20047;-92
2022/10/31 01:25:04;;;;;;;38.90;15.35;;;12.00;99.90;;;;;;5098403;28;20093;-93
2022/10/31 01:27:31;;;;;;;31.20;16.00;;;12.00;99.90;;;;;;5114757;28;20043;-91
2022/10/31 01:29:56;;;;;;;31.13;17.45;;;12.00;99.90;;;;;;5097609;28;20083;-94
2022/10/31 01:32:22;;;;;;;32.38;16.52;;;12.00;99.90;;;;;;5097936;28;20090;-93
2022/10/31 01:34:48;;;;;;;34.10;18.17;;;11.90;99.90;;;;;;5097679;28;20050;-92
2022/10/31 01:37:14;;;;;;;33.58;17.10;;;11.90;99.90;;;;;;5081107;28;20090;-94
2022/10/31 01:39:39;;;;;;;31.25;16.42;;;11.90;99.90;;;;;;5080925;28;20051;-91
2022/10/31 01:42:05;;;;;;;30.85;17.38;;;11.90;99.90;;;;;;5100631;28;20075;-90
2022/10/31 01:44:30;;;;;;;32.75;17.08;;;11.90;99.90;;;;;;5116741;28;20044;-90
2022/10/31 01:47:06;;;;;;;35.60;17.15;;;11.80;99.90;;;;;;5130679;28;20040;-91
2022/10/31 01:49:58;;;;;;;30.83;16.85;;;11.80;99.90;;;;;;5086617;28;20483;-91
2022/10/31 01:52:36;;;;;;;31.88;17.42;;;11.80;99.90;;;;;;5095762;28;20062;-92
2022/10/31 01:55:08;;;;;;;27.70;16.67;;;11.80;99.90;;;;;;5097822;28;20044;-93
2022/10/31 01:57:33;;;;;;;27.15;16.35;;;11.80;99.90;;;;;;5082015;28;20104;-94
2022/10/31 02:00:03;;;;;;;31.60;16.40;;;11.80;99.90;;;;;;5081167;28;20044;-89
2022/10/31 02:02:29;;;;;;;30.02;17.00;;;11.80;99.90;;;;;;5081380;28;20109;-93
2022/10/31 02:04:57;;;;;;;28.20;16.45;;;11.80;99.90;;;;;;5097315;28;20047;-91
2022/10/31 02:07:30;;;;;;;29.40;16.00;;;11.70;99.90;;;;;;5097476;28;20073;-92
2022/10/31 02:09:55;;;;;;;25.88;15.98;;;11.70;99.90;;;;;;5106059;28;20082;-89
2022/10/31 02:12:21;;;;;;;29.48;17.00;;;11.80;99.90;;;;;;5120642;28;20040;-89
2022/10/31 02:14:46;;;;;;;33.28;16.75;;;11.70;99.90;;;;;;5103758;28;20023;-89
2022/10/31 02:17:13;;;;;;;34.08;17.60;;;11.70;99.90;;;;;;5086863;28;20035;-89
2022/10/31 02:20:17;;;;;;;33.85;18.20;;;11.60;99.90;;;;;;5096128;28;20048;-92
2022/10/31 02:23:01;;;;;;;33.80;18.23;;;11.60;99.90;;;;;;4987630;28;20105;-91
2022/10/31 02:25:38;;;;;;;33.65;17.77;;;11.60;99.90;;;;;;5010389;28;20077;-92
2022/10/31 02:28:37;;;;;;;32.13;19.60;;;11.50;99.90;;;;;;5049114;28;20051;-92
2022/10/31 02:31:27;;;;;;;32.53;19.17;;;11.60;99.90;;;;;;5082445;28;20044;-93
2022/10/31 02:34:19;;;;;;;32.20;19.10;;;11.50;99.90;;;;;;5097519;28;20043;-93
2022/10/31 02:36:52;;;;;;;37.10;19.75;;;11.50;99.90;;;;;;5045121;28;20051;-93
2022/10/31 02:39:25;;;;;;;33.65;20.15;;;11.50;99.90;;;;;;5081383;28;20040;-93
2022/10/31 02:42:08;;;;;;;30.10;18.80;;;11.50;99.90;;;;;;5064228;28;20111;-92
2022/10/31 02:44:39;;;;;;;34.55;18.70;;;11.50;99.90;;;;;;5063539;28;20479;-92
2022/10/31 02:47:09;;;;;;;33.92;19.23;;;11.50;99.90;;;;;;5096943;28;20058;-93
2022/10/31 02:49:55;;;;;;;33.97;18.73;;;11.40;99.90;;;;;;5063514;28;20052;-90
2022/10/31 02:52:41;;;;;;;33.50;18.40;;;11.40;99.90;;;;;;5079189;28;20067;-91
2022/10/31 02:55:22;;;;;;;31.23;18.80;;;11.40;99.90;;;;;;5082165;28;20047;-91
2022/10/31 02:57:48;;;;;;;31.38;17.65;;;11.30;99.90;;;;;;5099127;28;20043;-92
2022/10/31 03:00:14;;;;;;;31.50;17.45;;;11.30;99.90;;;;;;5063559;28;20050;-92
2022/10/31 03:03:09;;;;;;;33.55;18.17;;;11.30;99.90;;;;;;5063503;28;20044;-93
2022/10/31 03:05:40;;;;;;;;;;;11.20;99.90;;;;;;4992046;28;20454;-94
2022/10/31 03:08:08;;;;;;;31.75;17.13;;;11.30;99.90;;;;;;5096405;28;19945;-92
2022/10/31 03:10:37;;;;;;;28.77;17.70;;;11.20;99.90;;;;;;5061851;28;20100;-91
2022/10/31 03:13:08;;;;;;;31.35;16.88;;;11.20;99.90;;;;;;5096199;28;20048;-92
2022/10/31 03:15:36;;;;;;;33.97;17.98;;;11.20;99.90;;;;;;5100961;28;20051;-92
2022/10/31 03:18:09;;;;;;;29.70;16.80;;;11.20;99.90;;;;;;5063288;28;20051;-93
2022/10/31 03:20:58;;;;;;;29.38;17.13;;;11.20;99.90;;;;;;5095724;28;20054;-92
2022/10/31 03:23:24;;;;;;;32.88;16.85;;;11.10;99.90;;;;;;5097607;28;20085;-91
2022/10/31 03:25:51;;;;;;;27.33;16.55;;;11.10;99.90;;;;;;5079059;28;20079;-93
2022/10/31 03:28:18;;;;;;;25.27;15.52;;;11.00;99.90;;;;;;5062532;28;20487;-93
2022/10/31 03:30:44;;;;;;;28.05;15.82;;;11.00;99.90;;;;;;5090806;28;20035;-88
2022/10/31 03:33:17;;;;;;;29.02;15.65;;;10.90;99.90;;;;;;5102855;28;20016;-89
2022/10/31 03:35:50;;;;;;;26.05;15.68;;;10.90;99.90;;;;;;5104883;28;20050;-87
2022/10/31 03:38:15;;;;;;;28.25;16.42;;;10.80;99.90;;;;;;5077568;28;20122;-93
2022/10/31 03:40:42;;;;;;;34.35;17.10;;;10.80;99.90;;;;;;5096468;28;20087;-94
2022/10/31 03:43:10;;;;;;;28.80;16.90;;;10.70;99.90;;;;;;5063125;28;20130;-93
2022/10/31 03:45:41;;;;;;;35.10;16.73;;;10.70;99.90;;;;;;5062366;28;20395;-93
2022/10/31 03:48:07;;;;;;;27.08;16.17;;;10.60;99.90;;;;;;5096552;28;20177;-92
2022/10/31 03:50:49;;;;;;;30.48;16.13;;;10.60;99.90;;;;;;5062060;28;20130;-92
2022/10/31 03:53:19;;;;;;;35.00;17.10;;;10.60;99.90;;;;;;5097997;28;20048;-93
2022/10/31 03:55:51;;;;;;;33.13;17.10;;;10.50;99.90;;;;;;5062278;28;20044;-91
2022/10/31 03:58:39;;;;;;;33.75;17.55;;;10.60;99.90;;;;;;5079673;28;20142;-93
2022/10/31 04:01:05;;;;;;;31.95;17.15;;;10.40;99.90;;;;;;5063022;28;20047;-93
2022/10/31 04:03:33;;;;;;;31.80;16.92;;;10.40;99.90;;;;;;5089546;28;20088;-94
2022/10/31 04:06:02;;;;;;;33.22;17.38;;;10.40;99.90;;;;;;5114295;28;20573;-91
2022/10/31 04:08:29;;;;;;;25.95;16.60;;;10.40;99.90;;;;;;5088159;28;20056;-91
2022/10/31 04:10:55;;;;;;;39.03;17.52;;;10.30;99.90;;;;;;5080856;28;20127;-94
2022/10/31 04:13:26;;;;;;;36.50;17.75;;;10.20;99.90;;;;;;5062938;28;20071;-88
2022/10/31 04:15:52;;;;;;;32.45;16.80;;;10.20;99.90;;;;;;5079671;28;20056;-92
2022/10/31 04:18:18;;;;;;;34.85;17.48;;;10.20;99.90;;;;;;5074778;28;20070;-92
2022/10/31 04:20:43;;;;;;;30.75;16.95;;;10.10;99.90;;;;;;5060775;28;20510;-92
2022/10/31 04:23:25;;;;;;;33.30;17.63;;;10.10;99.90;;;;;;5078200;28;20490;-91
2022/10/31 04:25:51;;;;;;;32.83;17.38;;;10.10;99.90;;;;;;5075375;28;20401;-93
2022/10/31 04:28:17;;;;;;;27.75;17.33;;;10.10;99.90;;;;;;5075259;28;20055;-91
2022/10/31 04:30:42;;;;;;;30.55;17.63;;;10.00;99.90;;;;;;5058033;28;20831;-91
2022/10/31 04:33:08;;;;;;;32.67;16.90;;;10.00;99.90;;;;;;5096190;28;20058;-91
2022/10/31 04:35:33;;;;;;;36.17;17.75;;;10.00;99.90;;;;;;5062552;28;20457;-93
2022/10/31 04:37:59;;;;;;;35.50;18.77;;;9.90;99.90;;;;;;5078983;28;20051;-93
2022/10/31 04:40:25;;;;;;;38.88;19.67;;;10.00;99.90;;;;;;5095300;28;20136;-89
2022/10/31 04:42:50;;;;;;;36.90;18.55;;;10.00;99.90;;;;;;5078988;28;20040;-94
2022/10/31 04:45:16;;;;;;;39.75;19.35;;;9.90;99.90;;;;;;5078852;28;20131;-91
2022/10/31 04:47:42;;;;;;;36.90;18.05;;;9.90;99.90;;;;;;5095442;28;20051;-93
2022/10/31 04:50:08;;;;;;;38.28;18.67;;;9.90;99.90;;;;;;5068314;28;20027;-92
2022/10/31 04:52:41;;;;;;;39.75;20.42;;;9.80;99.90;;;;;;5101938;28;20051;-89
2022/10/31 04:55:07;;;;;;;40.15;19.08;;;9.80;99.90;;;;;;5086047;28;20088;-90
2022/10/31 04:57:43;;;;;;;36.30;18.88;;;9.80;99.90;;;;;;5112967;28;20122;-93
2022/10/31 05:00:10;;;;;;;35.55;19.15;;;9.70;99.90;;;;;;5062641;28;20090;-92
2022/10/31 05:02:50;;;;;;;37.30;19.45;;;9.70;99.90;;;;;;5078202;28;20072;-93
2022/10/31 05:05:17;;;;;;;37.28;19.38;;;10.80;99.90;;;;;;5062180;28;20052;-92
2022/10/31 05:07:44;;;;;;;43.17;19.25;;;9.60;99.90;;;;;;5061913;28;20048;-92
2022/10/31 05:10:16;;;;;;;33.78;18.77;;;9.60;99.90;;;;;;5078901;28;20218;-92
2022/10/31 05:12:55;;;;;;;35.22;18.38;;;9.60;99.90;;;;;;5078427;28;20048;-93
2022/10/31 05:15:21;;;;;;;35.63;19.13;;;9.50;99.90;;;;;;5049306;28;20063;-91
2022/10/31 05:17:47;;;;;;;38.83;20.20;;;9.50;99.90;;;;;;5085399;28;20052;-90
2022/10/31 05:20:14;;;;;;;34.10;18.10;;;9.50;99.90;;;;;;5090612;28;20036;-92
2022/10/31 05:22:46;;;;;;;34.72;18.08;;;9.40;99.90;;;;;;5070003;28;20442;-93
2022/10/31 05:25:12;;;;;;;33.15;18.70;;;9.40;99.90;;;;;;5084376;28;20044;-93
2022/10/31 05:27:45;;;;;;;31.83;18.25;;;9.30;99.90;;;;;;5074796;28;20040;-92
2022/10/31 05:30:12;;;;;;;30.00;17.20;;;9.30;99.90;;;;;;5063369;28;20047;-92
2022/10/31 05:32:41;;;;;;;34.53;19.27;;;9.20;99.90;;;;;;5061568;28;20044;-92
2022/10/31 05:35:10;;;;;;;34.38;18.10;;;9.20;99.90;;;;;;5061803;28;20094;-92
2022/10/31 05:37:37;;;;;;;33.63;17.75;;;9.20;99.90;;;;;;5080075;28;20408;-93
2022/10/31 05:40:04;;;;;;;36.13;19.20;;;9.20;99.90;;;;;;5046278;28;20382;-92
2022/10/31 05:42:30;;;;;;;33.63;18.30;;;9.10;99.90;;;;;;5061771;28;20538;-92
2022/10/31 05:44:55;;;;;;;33.33;18.35;;;9.10;99.90;;;;;;5077514;28;20040;-90
2022/10/31 05:47:21;;;;;;;32.30;18.63;;;9.10;99.90;;;;;;5094216;28;20056;-91
2022/10/31 05:49:46;;;;;;;33.13;19.48;;;9.10;99.90;;;;;;5060409;28;20055;-91
2022/10/31 05:52:12;;;;;;;31.27;19.05;;;9.00;99.90;;;;;;5060473;28;20040;-92
2022/10/31 05:54:38;;;;;;;33.50;18.67;;;9.00;99.90;;;;;;5077289;28;20040;-91
2022/10/31 05:57:03;;;;;;;37.22;18.60;;;9.00;99.90;;;;;;5094257;28;20043;-93
2022/10/31 05:59:29;;;;;;;36.33;19.00;;;9.00;99.90;;;;;;5094544;28;20100;-92
2022/10/31 06:01:55;;;;;;;36.90;20.25;;;9.00;99.90;;;;;;5077423;28;20044;-93
2022/10/31 06:04:20;;;;;;;35.50;19.00;;;9.00;99.90;;;;;;5044308;28;20043;-94
2022/10/31 06:06:46;;;;;;;32.15;18.30;;;9.00;99.90;;;;;;5094304;28;20471;-92
2022/10/31 06:09:12;;;;;;;37.70;20.85;;;9.00;99.90;;;;;;5080421;28;20362;-89
2022/10/31 06:11:37;;;;;;;40.00;20.52;;;9.00;99.90;;;;;;5120491;28;20028;-90
2022/10/31 06:14:03;;;;;;;32.95;19.58;;;9.00;99.90;;;;;;5137602;28;20027;-92
2022/10/31 06:16:29;;;;;;;38.95;20.85;;;9.00;99.90;;;;;;5137638;28;20046;-89
2022/10/31 06:18:55;;;;;;;47.88;22.63;;;9.00;99.90;;;;;;5082754;28;20550;-93
2022/10/31 06:21:20;;;;;;;42.97;22.75;;;9.00;99.90;;;;;;5080913;28;20055;-92
2022/10/31 06:23:46;;;;;;;36.63;20.65;;;9.00;99.90;;;;;;5112613;28;20048;-88
2022/10/31 06:26:12;;;;;;;36.97;21.15;;;9.10;99.90;;;;;;5117720;28;20047;-90
2022/10/31 06:28:37;;;;;;;36.55;21.23;;;9.10;99.90;;;;;;5089971;28;20058;-91
2022/10/31 06:31:06;;;;;;;38.80;20.85;;;9.00;99.90;;;;;;5098327;28;20104;-92
2022/10/31 06:33:32;;;;;;;45.38;23.00;;;9.00;99.90;;;;;;5097607;28;20130;-92
2022/10/31 06:35:58;;;;;;;46.47;23.88;;;9.10;99.90;;;;;;5098330;28;20136;-92
2022/10/31 06:38:26;;;;;;;50.25;26.95;;;9.40;99.90;;;;;;5098791;28;20055;-93
2022/10/31 06:40:52;;;;;;;50.10;25.60;;;9.20;99.90;;;;;;5064007;28;20510;-91
2022/10/31 06:43:18;;;;;;;55.72;25.83;;;9.20;99.90;;;;;;5097842;28;20044;-93
2022/10/31 06:45:43;;;;;;;53.17;25.48;;;9.30;99.90;;;;;;5113881;28;20471;-93
2022/10/31 06:48:09;;;;;;;48.22;25.02;;;9.30;99.90;;;;;;5114020;28;20134;-92
2022/10/31 06:50:35;;;;;;;42.08;23.65;;;9.30;99.90;;;;;;5096683;28;20043;-92
2022/10/31 06:53:00;;;;;;;47.72;24.60;;;9.30;99.90;;;;;;5097539;28;20043;-93
2022/10/31 06:55:26;;;;;;;51.97;26.23;;;9.30;99.90;;;;;;5062979;28;20052;-92
2022/10/31 06:57:56;;;;;;;49.90;25.48;;;9.30;99.90;;;;;;5096290;28;20077;-93
2022/10/31 07:00:22;;;;;;;46.08;24.75;;;9.30;99.90;;;;;;5097109;28;20044;-93
2022/10/31 07:03:01;;;;;;;51.55;26.15;;;9.40;99.90;;;;;;5085823;28;20074;-91
2022/10/31 07:05:27;;;;;;;50.45;24.73;;;9.40;99.90;;;;;;5091401;28;20056;-96
2022/10/31 07:07:57;;;;;;;50.78;24.80;;;9.50;99.90;;;;;;5092201;28;20040;-91
2022/10/31 07:10:24;;;;;;;47.92;25.58;;;9.40;99.90;;;;;;5104289;28;20054;-90
2022/10/31 07:12:57;;;;;;;58.90;25.80;;;9.50;99.90;;;;;;5104752;28;20075;-93
2022/10/31 07:15:26;;;;;;;45.28;24.40;;;9.50;99.90;;;;;;5118058;28;20045;-92
2022/10/31 07:17:52;;;;;;;52.03;24.77;;;9.50;99.90;;;;;;5085662;28;20027;-88
2022/10/31 07:20:18;;;;;;;46.53;24.75;;;9.60;99.90;;;;;;5119836;28;20084;-88
2022/10/31 07:22:43;;;;;;;65.90;28.88;;;9.50;99.90;;;;;;5102695;28;20042;-89
2022/10/31 07:25:09;;;;;;;49.35;24.67;;;9.50;99.90;;;;;;5119578;28;20027;-90
2022/10/31 07:27:39;;;;;;;49.75;24.88;;;9.50;99.90;;;;;;5083467;28;20130;-89
2022/10/31 07:30:05;;;;;;;59.88;25.02;;;9.60;99.90;;;;;;5102829;28;20031;-87
2022/10/31 07:32:44;;;;;;;45.63;25.17;;;9.60;99.90;;;;;;5085044;28;20039;-90
2022/10/31 07:35:12;;;;;;;39.55;24.58;;;9.70;99.90;;;;;;5085762;28;20056;-88
2022/10/31 07:37:37;;;;;;;46.20;24.27;;;9.70;99.90;;;;;;5195515;23;20078;-86
2022/10/31 07:40:04;;;;;;;43.85;26.08;;;9.80;99.90;;;;;;5108338;28;20024;-87
2022/10/31 07:42:34;;;;;;;39.55;23.98;;;9.90;99.90;;;;;;5130630;28;20073;-90
2022/10/31 07:44:59;;;;;;;41.35;24.63;;;10.00;99.90;;;;;;5089649;28;20043;-89
2022/10/31 07:47:25;;;;;;;38.35;24.65;;;10.20;99.90;;;;;;5123359;28;20020;-88
2022/10/31 07:49:55;;;;;;;42.35;24.80;;;10.30;99.90;;;;;;5103794;28;20032;-90
2022/10/31 07:52:20;;;;;;;33.35;23.50;;;10.50;99.90;;;;;;5082717;28;20083;-91
2022/10/31 07:54:46;;;;;;;33.00;21.67;;;10.60;99.90;;;;;;5097526;28;20065;-91
2022/10/31 07:57:12;;;;;;;35.03;21.83;;;10.70;99.90;;;;;;5080505;28;20071;-90
2022/10/31 07:59:37;;;;;;;33.13;22.77;;;10.70;99.90;;;;;;5094448;28;20063;-91
2022/10/31 08:02:03;;;;;;;32.35;23.30;;;10.90;99.90;;;;;;5086968;28;20046;-90
2022/10/31 08:04:28;;;;;;;35.30;23.50;;;11.10;99.90;;;;;;5107064;28;20051;-93
2022/10/31 08:06:54;;;;;;;30.98;22.13;;;11.20;99.90;;;;;;5089638;28;20044;-92
2022/10/31 08:09:20;;;;;;;28.90;21.10;;;11.50;99.90;;;;;;5126129;28;20058;-92
2022/10/31 08:11:46;;;;;;;31.25;19.65;;;11.70;99.90;;;;;;5090217;28;20044;-92
2022/10/31 08:14:11;;;;;;;28.33;20.88;;;11.70;99.90;;;;;;5107170;28;20044;-89
2022/10/31 08:16:37;;;;;;;35.42;21.20;;;11.70;99.90;;;;;;5099190;28;20047;-92
2022/10/31 08:19:02;;;;;;;30.63;22.05;;;11.80;99.90;;;;;;5099900;28;20031;-87
2022/10/31 08:21:28;;;;;;;29.58;20.98;;;12.00;99.90;;;;;;5114925;28;20044;-86
2022/10/31 08:23:54;;;;;;;34.20;21.05;;;12.10;99.90;;;;;;5127725;28;20040;-88
2022/10/31 08:26:19;;;;;;;31.10;20.33;;;12.30;99.90;;;;;;5096107;28;20079;-92
2022/10/31 08:28:46;;;;;;;31.30;20.13;;;12.50;99.90;;;;;;5117842;28;20044;-87
2022/10/31 08:31:11;;;;;;;24.58;18.70;;;12.60;99.90;;;;;;5065994;28;20035;-91
2022/10/31 08:33:37;;;;;;;20.38;16.85;;;12.50;99.90;;;;;;5078330;28;20472;-92
2022/10/31 08:36:03;;;;;;;24.77;17.85;;;12.60;99.90;;;;;;5073016;28;20036;-91
2022/10/31 08:38:29;;;;;;;20.52;16.10;;;12.60;99.90;;;;;;5074512;28;20062;-92
2022/10/31 08:40:54;;;;;;;20.52;16.35;;;12.90;99.90;;;;;;5073214;28;20098;-93
2022/10/31 08:43:20;;;;;;;18.65;16.05;;;13.00;99.90;;;;;;5081717;28;20052;-92
2022/10/31 08:45:48;;;;;;;20.25;15.30;;;13.20;99.90;;;;;;5079970;28;20011;-88
2022/10/31 08:48:14;;;;;;;23.60;17.17;;;13.60;99.90;;;;;;5126443;28;20020;-90
2022/10/31 08:50:40;;;;;;;19.17;16.30;;;14.00;99.90;;;;;;5110996;28;20024;-88
2022/10/31 08:53:08;;;;;;;22.80;16.17;;;14.40;99.90;;;;;;5088197;28;20053;-91
2022/10/31 08:55:35;;;;;;;20.33;15.20;;;14.90;99.90;;;;;;5072357;28;20048;-93
2022/10/31 08:58:01;;;;;;;20.23;15.18;;;15.10;99.90;;;;;;5058776;28;20080;-90
2022/10/31 09:00:26;;;;;;;18.15;15.05;;;15.10;99.90;;;;;;5102706;28;20082;-90
2022/10/31 09:02:59;;;;;;;19.95;14.05;;;15.00;99.90;;;;;;5054935;28;20048;-88
2022/10/31 09:05:25;;;;;;;17.67;13.57;;;14.70;99.90;;;;;;5084097;28;20055;-91
2022/10/31 09:07:51;;;;;;;18.88;14.00;;;14.60;99.90;;;;;;5065061;28;20044;-89
2022/10/31 09:10:17;;;;;;;20.30;14.77;;;14.30;99.90;;;;;;5060723;28;20040;-91
2022/10/31 09:12:44;;;;;;;21.40;14.25;;;14.10;99.90;;;;;;5077937;28;20044;-92
2022/10/31 09:15:09;;;;;;;20.60;15.30;;;13.90;99.90;;;;;;5060446;28;20060;-91
2022/10/31 09:17:35;;;;;;;21.05;14.98;;;13.80;99.90;;;;;;5043991;28;20059;-91
2022/10/31 09:20:01;;;;;;;20.30;15.43;;;13.80;99.90;;;;;;5077409;28;20058;-90
2022/10/31 09:22:26;;;;;;;21.80;16.65;;;13.80;99.90;;;;;;5044149;28;20229;-91
2022/10/31 09:24:52;;;;;;;26.00;16.17;;;13.80;99.90;;;;;;5077122;28;20044;-92
2022/10/31 09:27:18;;;;;;;27.33;16.27;;;13.90;99.90;;;;;;5061822;28;20036;-89
2022/10/31 09:29:43;;;;;;;21.15;15.27;;;14.10;99.90;;;;;;5105476;28;20134;-88
2022/10/31 09:32:10;;;;;;;24.67;15.68;;;14.20;99.90;;;;;;5051881;28;20114;-89
2022/10/31 09:34:35;;;;;;;23.27;15.52;;;14.30;99.90;;;;;;5086952;28;20056;-89
2022/10/31 09:37:01;;;;;;;21.80;15.00;;;14.50;99.90;;;;;;5068629;28;20105;-88
2022/10/31 09:39:28;;;;;;;18.73;14.82;;;14.60;99.90;;;;;;5080685;28;20145;-91
2022/10/31 09:42:18;;;;;;;22.00;14.85;;;14.70;99.90;;;;;;5104360;28;20101;-89
2022/10/31 09:45:08;;;;;;;21.75;14.18;;;14.60;99.90;;;;;;5102108;28;20046;-90
2022/10/31 09:47:55;;;;;;;19.55;13.52;;;14.70;99.90;;;;;;5068490;28;20044;-89
2022/10/31 09:50:22;;;;;;;20.30;13.43;;;14.50;99.90;;;;;;5084884;28;20052;-91
2022/10/31 09:52:58;;;;;;;20.90;14.00;;;14.50;99.90;;;;;;5068317;28;20040;-89
2022/10/31 09:55:36;;;;;;;16.73;12.75;;;14.50;99.90;;;;;;5076219;28;20118;-92
2022/10/31 09:58:02;;;;;;;18.88;13.02;;;14.40;99.90;;;;;;5094288;28;20036;-90
2022/10/31 10:00:27;;;;;;;19.25;12.43;;;14.30;99.90;;;;;;5072940;28;20043;-88
2022/10/31 10:02:57;;;;;;;20.13;13.68;;;14.30;99.90;;;;;;5075380;28;20506;-89
2022/10/31 10:05:51;;;;;;;18.40;13.35;;;14.30;99.90;;;;;;5095275;28;20020;-87
2022/10/31 10:08:21;;;;;;;18.50;13.50;;;14.20;99.90;;;;;;5088055;28;20039;-86
2022/10/31 10:10:53;;;;;;;21.25;12.98;;;14.30;99.90;;;;;;5086805;28;20036;-88
2022/10/31 10:13:21;;;;;;;17.92;13.10;;;14.40;99.90;;;;;;5084063;28;20134;-87
2022/10/31 10:16:07;;;;;;;17.42;13.20;;;14.50;99.90;;;;;;5086154;28;21380;-91
2022/10/31 10:18:55;;;;;;;20.90;13.43;;;14.50;99.90;;;;;;5102055;28;20046;-91
2022/10/31 10:21:37;;;;;;;19.48;12.73;;;14.50;99.90;;;;;;5087416;28;20043;-88
2022/10/31 10:24:17;;;;;;;19.50;12.60;;;14.50;99.90;;;;;;5053568;28;20094;-91
2022/10/31 10:27:18;;;;;;;18.95;13.05;;;14.60;99.90;;;;;;5091640;28;20051;-91
2022/10/31 10:29:57;;;;;;;18.63;13.38;;;14.50;99.90;;;;;;5024968;28;20068;-91
2022/10/31 10:32:32;;;;;;;19.73;13.57;;;14.60;99.90;;;;;;5095655;28;20047;-90
2022/10/31 10:35:02;;;;;;;20.73;13.50;;;14.70;99.90;;;;;;5077780;28;20094;-89
2022/10/31 10:37:34;;;;;;;20.52;13.90;;;14.70;99.90;;;;;;5077543;28;20148;-91
2022/10/31 10:40:23;;;;;;;19.35;13.68;;;14.80;99.90;;;;;;5075758;28;20608;-89
2022/10/31 10:43:23;;;;;;;17.42;12.77;;;14.90;99.90;;;;;;5085130;28;20104;-86
2022/10/31 10:48:55;;;;;;;17.42;12.30;;;15.10;99.90;;;;;;5077760;28;20063;-89
2022/10/31 10:51:47;;;;;;;16.95;11.55;;;15.20;99.90;;;;;;5074726;28;20105;-89
2022/10/31 10:54:54;;;;;;;19.60;11.38;;;15.30;99.90;;;;;;5059140;28;20063;-90
2022/10/31 10:57:29;;;;;;;19.63;12.18;;;15.40;99.90;;;;;;5050368;28;20045;-87
2022/10/31 10:59:54;;;;;;;19.42;12.88;;;15.40;99.90;;;;;;5034458;28;20053;-93
2022/10/31 11:02:26;;;;;;;21.35;12.23;;;16.00;99.90;;;;;;5047917;28;20492;-92
2022/10/31 11:04:55;;;;;;;17.83;11.65;;;15.30;99.90;;;;;;5098296;28;20099;-88
2022/10/31 11:07:21;;;;;;;18.95;11.70;;;15.30;99.90;;;;;;5094850;28;20044;-91
2022/10/31 11:09:50;;;;;;;15.93;10.63;;;15.30;99.90;;;;;;5090826;28;20535;-89
2022/10/31 11:12:41;;;;;;;17.80;11.20;;;15.30;99.90;;;;;;5079805;28;20131;-92
2022/10/31 11:15:21;;;;;;;16.05;11.30;;;15.30;99.90;;;;;;5075804;28;20126;-91
2022/10/31 11:17:49;;;;;;;19.08;11.43;;;15.50;99.90;;;;;;5078512;28;20539;-89
2022/10/31 11:20:15;;;;;;;17.33;10.35;;;15.60;99.90;;;;;;5072647;28;20113;-90
2022/10/31 11:22:42;;;;;;;17.38;10.55;;;15.90;99.90;;;;;;5118150;28;20027;-91
2022/10/31 11:25:20;;;;;;;16.38;10.20;;;16.00;99.90;;;;;;5074122;28;20126;-89
2022/10/31 11:28:05;;;;;;;12.75;8.90;;;16.20;99.90;;;;;;5124039;28;20023;-88
2022/10/31 11:30:35;;;;;;;15.50;9.13;;;16.20;99.90;;;;;;5105997;28;20036;-90
2022/10/31 11:33:00;;;;;;;12.52;8.20;;;16.30;99.90;;;;;;5066847;28;20051;-91
2022/10/31 11:35:28;;;;;;;12.60;8.20;;;16.10;99.90;;;;;;5062806;28;20044;-91
2022/10/31 11:38:05;;;;;;;14.32;7.75;;;16.20;99.90;;;;;;5096597;28;20054;-91
2022/10/31 11:40:31;;;;;;;15.32;10.85;;;16.10;99.90;;;;;;5081894;28;20122;-84
2022/10/31 11:42:58;;;;;;;16.75;11.70;;;16.10;99.90;;;;;;5099327;28;20054;-88
2022/10/31 11:45:24;;;;;;;18.50;12.50;;;16.20;99.90;;;;;;5066179;28;20052;-89
2022/10/31 11:47:51;;;;;;;18.15;12.45;;;16.00;99.90;;;;;;5116067;28;20044;-90
2022/10/31 11:50:47;;;;;;;18.42;12.15;;;16.00;99.90;;;;;;5081262;28;20110;-88
2022/10/31 11:53:22;;;;;;;20.58;12.60;;;16.00;99.90;;;;;;5104587;28;20051;-89
2022/10/31 11:55:48;;;;;;;17.23;11.70;;;16.00;99.90;;;;;;5082641;28;20407;-90
2022/10/31 11:58:22;;;;;;;19.92;12.35;;;15.90;99.90;;;;;;5081774;28;20043;-90
2022/10/31 12:00:53;;;;;;;18.73;11.77;;;16.00;99.90;;;;;;5083215;28;20047;-89
2022/10/31 12:03:22;;;;;;;19.05;11.57;;;15.90;99.90;;;;;;5098103;28;20039;-88
2022/10/31 12:06:00;;;;;;;19.40;11.77;;;15.80;99.90;;;;;;5115285;28;20043;-90
2022/10/31 12:08:36;;;;;;;20.27;12.18;;;15.80;99.90;;;;;;5082168;28;20098;-89
2022/10/31 12:11:13;;;;;;;21.30;12.73;;;15.80;99.90;;;;;;5065142;28;20372;-88
2022/10/31 12:14:03;;;;;;;17.52;12.48;;;15.80;99.90;;;;;;5097582;28;20051;-89
2022/10/31 12:16:44;;;;;;;18.23;12.43;;;15.90;99.90;;;;;;5098274;28;20067;-88
2022/10/31 12:19:17;;;;;;;16.08;10.30;;;16.00;99.90;;;;;;5098518;28;20047;-90
2022/10/31 12:22:02;;;;;;;16.95;10.07;;;16.10;99.90;;;;;;5098289;28;20048;-89
2022/10/31 12:24:42;;;;;;;15.90;9.25;;;16.20;99.90;;;;;;5082245;28;20400;-88
2022/10/31 12:27:48;;;;;;;19.13;10.18;;;16.20;99.90;;;;;;5115845;28;20051;-86
2022/10/31 12:30:40;;;;;;;19.15;10.40;;;16.20;99.90;;;;;;5105978;28;20051;-89
2022/10/31 12:33:37;;;;;;;17.63;10.77;;;16.20;99.90;;;;;;5086233;28;20062;-91
2022/10/31 12:36:34;;;;;;;14.50;10.20;;;16.10;99.90;;;;;;5100322;28;20051;-87
2022/10/31 12:39:24;;;;;;;14.38;10.18;;;16.20;99.90;;;;;;5100466;28;20455;-92
2022/10/31 12:41:59;;;;;;;15.63;10.68;;;16.30;99.90;;;;;;5115266;28;20077;-88
2022/10/31 12:44:47;;;;;;;18.33;10.45;;;16.10;99.90;;;;;;5135654;28;20039;-84
2022/10/31 12:47:42;;;;;;;16.48;10.07;;;16.00;99.90;;;;;;5136286;28;20036;-88
2022/10/31 12:50:10;;;;;;;17.15;10.40;;;16.00;99.90;;;;;;5026122;28;20127;-88
2022/10/31 12:52:55;;;;;;;16.40;10.45;;;15.90;99.90;;;;;;5114047;28;20569;-88